sensor_id;sensor_type;location;lat;lon;timestamp;temperature;humidity
7844;DHT22;3967;48.702;9.326;2022-12-18T00:01:18;-4.90;96.00
7844;DHT22;3967;48.702;9.326;2022-12-18T00:03:45;-4.90;95.70
7844;DHT22;3967;48.702;9.326;2022-12-18T00:06:13;-5.00;95.40
7844;DHT22;3967;48.702;9.326;2022-12-18T00:08:43;-5.10;95.20
7844;DHT22;3967;48.702;9.326;2022-12-18T00:11:16;-5.20;95.40
7844;DHT22;3967;48.702;9.326;2022-12-18T00:13:44;-5.10;95.70
7844;DHT22;3967;48.702;9.326;2022-12-18T00:16:14;-5.20;95.70
7844;DHT22;3967;48.702;9.326;2022-12-18T00:18:42;-5.20;96.00
7844;DHT22;3967;48.702;9.326;2022-12-18T00:21:11;-5.20;96.30
7844;DHT22;3967;48.702;9.326;2022-12-18T00:23:39;-5.20;96.70
7844;DHT22;3967;48.702;9.326;2022-12-18T00:26:15;-5.20;96.50
7844;DHT22;3967;48.702;9.326;2022-12-18T00:28:43;-5.40;96.80
7844;DHT22;3967;48.702;9.326;2022-12-18T00:31:13;-5.50;97.20
7844;DHT22;3967;48.702;9.326;2022-12-18T00:33:41;-5.50;97.10
7844;DHT22;3967;48.702;9.326;2022-12-18T00:36:17;-5.40;96.70
7844;DHT22;3967;48.702;9.326;2022-12-18T00:38:44;-5.30;96.70
7844;DHT22;3967;48.702;9.326;2022-12-18T00:41:13;-5.40;96.00
7844;DHT22;3967;48.702;9.326;2022-12-18T00:43:40;-5.30;96.20
7844;DHT22;3967;48.702;9.326;2022-12-18T00:46:07;-5.30;96.10
7844;DHT22;3967;48.702;9.326;2022-12-18T00:48:35;-5.30;96.10
7844;DHT22;3967;48.702;9.326;2022-12-18T00:51:01;-5.20;96.00
7844;DHT22;3967;48.702;9.326;2022-12-18T00:53:28;-5.20;95.60
7844;DHT22;3967;48.702;9.326;2022-12-18T00:55:55;-5.20;95.30
7844;DHT22;3967;48.702;9.326;2022-12-18T00:58:21;-5.30;95.20
7844;DHT22;3967;48.702;9.326;2022-12-18T01:00:48;-5.40;95.00
7844;DHT22;3967;48.702;9.326;2022-12-18T01:03:15;-5.50;95.20
7844;DHT22;3967;48.702;9.326;2022-12-18T01:05:42;-5.40;95.30
7844;DHT22;3967;48.702;9.326;2022-12-18T01:08:09;-5.50;95.30
7844;DHT22;3967;48.702;9.326;2022-12-18T01:10:36;-5.40;95.40
7844;DHT22;3967;48.702;9.326;2022-12-18T01:13:02;-5.50;95.20
7844;DHT22;3967;48.702;9.326;2022-12-18T01:15:29;-5.50;95.40
7844;DHT22;3967;48.702;9.326;2022-12-18T01:17:56;-5.80;95.40
7844;DHT22;3967;48.702;9.326;2022-12-18T01:20:23;-5.80;95.70
7844;DHT22;3967;48.702;9.326;2022-12-18T01:22:49;-5.80;96.40
7844;DHT22;3967;48.702;9.326;2022-12-18T01:25:16;-5.60;96.60
7844;DHT22;3967;48.702;9.326;2022-12-18T01:27:43;-5.40;96.00
7844;DHT22;3967;48.702;9.326;2022-12-18T01:30:10;-5.40;94.90
7844;DHT22;3967;48.702;9.326;2022-12-18T01:32:37;-5.40;94.40
7844;DHT22;3967;48.702;9.326;2022-12-18T01:35:04;-5.40;93.90
7844;DHT22;3967;48.702;9.326;2022-12-18T01:37:31;-5.50;93.50
7844;DHT22;3967;48.702;9.326;2022-12-18T01:39:58;-5.50;93.30
7844;DHT22;3967;48.702;9.326;2022-12-18T01:42:25;-5.40;93.10
7844;DHT22;3967;48.702;9.326;2022-12-18T01:53:15;-5.50;91.30
7844;DHT22;3967;48.702;9.326;2022-12-18T01:55:49;-5.60;90.90
7844;DHT22;3967;48.702;9.326;2022-12-18T01:58:19;-5.60;90.80
7844;DHT22;3967;48.702;9.326;2022-12-18T02:00:47;-5.80;90.90
7844;DHT22;3967;48.702;9.326;2022-12-18T02:03:14;-6.00;91.50
7844;DHT22;3967;48.702;9.326;2022-12-18T02:08:12;-6.10;91.60
7844;DHT22;3967;48.702;9.326;2022-12-18T02:13:56;-6.20;90.50
7844;DHT22;3967;48.702;9.326;2022-12-18T02:16:54;-6.20;89.90
7844;DHT22;3967;48.702;9.326;2022-12-18T02:19:37;-6.40;89.20
7844;DHT22;3967;48.702;9.326;2022-12-18T02:22:29;-6.30;89.20
7844;DHT22;3967;48.702;9.326;2022-12-18T02:27:41;-6.40;89.00
7844;DHT22;3967;48.702;9.326;2022-12-18T02:30:10;-6.40;88.90
7844;DHT22;3967;48.702;9.326;2022-12-18T02:32:41;-6.40;89.30
7844;DHT22;3967;48.702;9.326;2022-12-18T02:35:13;-6.50;90.20
7844;DHT22;3967;48.702;9.326;2022-12-18T02:37:41;-6.60;90.40
7844;DHT22;3967;48.702;9.326;2022-12-18T02:40:11;-6.60;90.60
7844;DHT22;3967;48.702;9.326;2022-12-18T02:42:38;-6.80;90.90
7844;DHT22;3967;48.702;9.326;2022-12-18T02:45:05;-6.70;91.10
7844;DHT22;3967;48.702;9.326;2022-12-18T02:47:36;-6.60;90.80
7844;DHT22;3967;48.702;9.326;2022-12-18T02:50:38;-6.50;90.30
7844;DHT22;3967;48.702;9.326;2022-12-18T02:53:19;-6.50;90.10
7844;DHT22;3967;48.702;9.326;2022-12-18T02:58:58;-6.50;89.70
7844;DHT22;3967;48.702;9.326;2022-12-18T03:01:50;-6.50;89.70
7844;DHT22;3967;48.702;9.326;2022-12-18T03:04:34;-6.50;89.70
7844;DHT22;3967;48.702;9.326;2022-12-18T03:07:07;-6.70;89.50
7844;DHT22;3967;48.702;9.326;2022-12-18T03:09:38;-6.80;89.30
7844;DHT22;3967;48.702;9.326;2022-12-18T03:12:29;-6.80;88.50
7844;DHT22;3967;48.702;9.326;2022-12-18T03:17:46;-7.10;88.10
7844;DHT22;3967;48.702;9.326;2022-12-18T03:20:19;-7.30;88.50
7844;DHT22;3967;48.702;9.326;2022-12-18T03:22:55;-7.20;89.10
7844;DHT22;3967;48.702;9.326;2022-12-18T03:25:30;-7.10;88.70
7844;DHT22;3967;48.702;9.326;2022-12-18T03:27:59;-7.00;88.80
7844;DHT22;3967;48.702;9.326;2022-12-18T03:30:30;-6.90;87.50
7844;DHT22;3967;48.702;9.326;2022-12-18T03:33:09;-6.90;86.70
7844;DHT22;3967;48.702;9.326;2022-12-18T03:35:40;-7.00;86.50
7844;DHT22;3967;48.702;9.326;2022-12-18T03:38:08;-7.00;86.70
7844;DHT22;3967;48.702;9.326;2022-12-18T03:43:52;-7.20;86.80
7844;DHT22;3967;48.702;9.326;2022-12-18T03:49:02;-7.40;86.70
7844;DHT22;3967;48.702;9.326;2022-12-18T03:51:45;-7.70;87.30
7844;DHT22;3967;48.702;9.326;2022-12-18T03:54:14;-7.60;88.00
7844;DHT22;3967;48.702;9.326;2022-12-18T03:56:47;-7.40;87.80
7844;DHT22;3967;48.702;9.326;2022-12-18T03:59:16;-7.30;87.00
7844;DHT22;3967;48.702;9.326;2022-12-18T04:01:47;-7.30;86.20
7844;DHT22;3967;48.702;9.326;2022-12-18T04:04:15;-7.40;85.70
7844;DHT22;3967;48.702;9.326;2022-12-18T04:06:43;-7.40;85.90
7844;DHT22;3967;48.702;9.326;2022-12-18T04:09:12;-7.40;85.60
7844;DHT22;3967;48.702;9.326;2022-12-18T04:11:40;-7.30;85.30
7844;DHT22;3967;48.702;9.326;2022-12-18T04:14:07;-7.40;84.70
7844;DHT22;3967;48.702;9.326;2022-12-18T04:16:40;-7.40;84.40
7844;DHT22;3967;48.702;9.326;2022-12-18T04:19:06;-7.50;83.90
7844;DHT22;3967;48.702;9.326;2022-12-18T04:21:33;-7.50;84.10
7844;DHT22;3967;48.702;9.326;2022-12-18T04:24:00;-7.60;84.00
7844;DHT22;3967;48.702;9.326;2022-12-18T04:26:26;-7.60;84.10
7844;DHT22;3967;48.702;9.326;2022-12-18T04:28:53;-7.60;83.90
7844;DHT22;3967;48.702;9.326;2022-12-18T04:31:20;-7.50;84.10
7844;DHT22;3967;48.702;9.326;2022-12-18T04:33:47;-7.60;84.30
7844;DHT22;3967;48.702;9.326;2022-12-18T04:36:13;-7.50;84.30
7844;DHT22;3967;48.702;9.326;2022-12-18T04:38:40;-7.50;84.30
7844;DHT22;3967;48.702;9.326;2022-12-18T04:41:07;-7.60;83.80
7844;DHT22;3967;48.702;9.326;2022-12-18T04:43:34;-7.60;83.70
7844;DHT22;3967;48.702;9.326;2022-12-18T04:46:07;-7.70;83.40
7844;DHT22;3967;48.702;9.326;2022-12-18T04:48:36;-7.70;83.30
7844;DHT22;3967;48.702;9.326;2022-12-18T04:51:04;-7.60;83.20
7844;DHT22;3967;48.702;9.326;2022-12-18T04:53:31;-7.80;82.90
7844;DHT22;3967;48.702;9.326;2022-12-18T04:56:09;-7.70;83.10
7844;DHT22;3967;48.702;9.326;2022-12-18T04:58:37;-7.80;82.80
7844;DHT22;3967;48.702;9.326;2022-12-18T05:01:04;-8.00;82.80
7844;DHT22;3967;48.702;9.326;2022-12-18T05:03:31;-7.90;83.50
7844;DHT22;3967;48.702;9.326;2022-12-18T05:05:58;-8.00;83.20
7844;DHT22;3967;48.702;9.326;2022-12-18T05:08:25;-8.20;82.80
7844;DHT22;3967;48.702;9.326;2022-12-18T05:11:08;-8.20;83.90
7844;DHT22;3967;48.702;9.326;2022-12-18T05:13:36;-8.30;83.50
7844;DHT22;3967;48.702;9.326;2022-12-18T05:16:05;-8.30;83.50
7844;DHT22;3967;48.702;9.326;2022-12-18T05:18:32;-8.30;83.30
7844;DHT22;3967;48.702;9.326;2022-12-18T05:20:59;-8.10;83.30
7844;DHT22;3967;48.702;9.326;2022-12-18T05:23:26;-8.10;82.60
7844;DHT22;3967;48.702;9.326;2022-12-18T05:25:57;-8.00;82.50
7844;DHT22;3967;48.702;9.326;2022-12-18T05:28:26;-8.10;82.30
7844;DHT22;3967;48.702;9.326;2022-12-18T05:30:55;-8.20;82.30
7844;DHT22;3967;48.702;9.326;2022-12-18T05:33:24;-8.20;82.50
7844;DHT22;3967;48.702;9.326;2022-12-18T05:35:52;-8.30;82.60
7844;DHT22;3967;48.702;9.326;2022-12-18T05:38:20;-8.20;82.70
7844;DHT22;3967;48.702;9.326;2022-12-18T05:40:48;-8.20;82.90
7844;DHT22;3967;48.702;9.326;2022-12-18T05:43:14;-8.10;82.90
7844;DHT22;3967;48.702;9.326;2022-12-18T05:45:47;-7.90;82.70
7844;DHT22;3967;48.702;9.326;2022-12-18T05:48:15;-7.80;82.50
7844;DHT22;3967;48.702;9.326;2022-12-18T05:50:44;-7.90;82.00
7844;DHT22;3967;48.702;9.326;2022-12-18T05:53:14;-8.00;82.00
7844;DHT22;3967;48.702;9.326;2022-12-18T05:55:42;-7.80;82.20
7844;DHT22;3967;48.702;9.326;2022-12-18T05:58:10;-7.80;82.20
7844;DHT22;3967;48.702;9.326;2022-12-18T06:00:38;-7.80;81.90
7844;DHT22;3967;48.702;9.326;2022-12-18T06:03:10;-7.80;81.70
7844;DHT22;3967;48.702;9.326;2022-12-18T06:05:42;-7.80;81.90
7844;DHT22;3967;48.702;9.326;2022-12-18T06:08:09;-7.90;82.00
7844;DHT22;3967;48.702;9.326;2022-12-18T06:10:37;-8.10;82.00
7844;DHT22;3967;48.702;9.326;2022-12-18T06:13:04;-8.10;82.30
7844;DHT22;3967;48.702;9.326;2022-12-18T06:15:31;-8.20;81.60
7844;DHT22;3967;48.702;9.326;2022-12-18T06:17:59;-8.30;81.80
7844;DHT22;3967;48.702;9.326;2022-12-18T06:20:26;-8.40;81.90
7844;DHT22;3967;48.702;9.326;2022-12-18T06:22:59;-8.40;82.20
7844;DHT22;3967;48.702;9.326;2022-12-18T06:25:25;-8.20;82.80
7844;DHT22;3967;48.702;9.326;2022-12-18T06:27:52;-8.00;82.50
7844;DHT22;3967;48.702;9.326;2022-12-18T06:30:19;-7.90;82.00
7844;DHT22;3967;48.702;9.326;2022-12-18T06:32:47;-8.10;81.50
7844;DHT22;3967;48.702;9.326;2022-12-18T06:35:20;-8.00;81.70
7844;DHT22;3967;48.702;9.326;2022-12-18T06:37:47;-8.00;81.40
7844;DHT22;3967;48.702;9.326;2022-12-18T06:40:13;-7.90;81.50
7844;DHT22;3967;48.702;9.326;2022-12-18T06:42:40;-7.90;81.40
7844;DHT22;3967;48.702;9.326;2022-12-18T06:45:07;-7.80;81.30
7844;DHT22;3967;48.702;9.326;2022-12-18T06:47:34;-7.90;81.10
7844;DHT22;3967;48.702;9.326;2022-12-18T06:50:01;-7.90;81.20
7844;DHT22;3967;48.702;9.326;2022-12-18T06:52:27;-7.80;81.30
7844;DHT22;3967;48.702;9.326;2022-12-18T06:54:54;-7.80;81.30
7844;DHT22;3967;48.702;9.326;2022-12-18T06:57:21;-8.00;81.20
7844;DHT22;3967;48.702;9.326;2022-12-18T06:59:47;-8.10;81.20
7844;DHT22;3967;48.702;9.326;2022-12-18T07:02:14;-8.20;81.10
7844;DHT22;3967;48.702;9.326;2022-12-18T07:04:41;-8.30;81.00
7844;DHT22;3967;48.702;9.326;2022-12-18T07:07:07;-8.30;80.90
7844;DHT22;3967;48.702;9.326;2022-12-18T07:09:34;-8.30;80.60
7844;DHT22;3967;48.702;9.326;2022-12-18T07:12:01;-8.40;80.50
7844;DHT22;3967;48.702;9.326;2022-12-18T07:14:28;-8.40;80.50
7844;DHT22;3967;48.702;9.326;2022-12-18T07:16:55;-8.30;80.50
7844;DHT22;3967;48.702;9.326;2022-12-18T07:19:22;-8.20;80.30
7844;DHT22;3967;48.702;9.326;2022-12-18T07:21:51;-8.30;80.40
7844;DHT22;3967;48.702;9.326;2022-12-18T07:24:18;-8.20;80.80
7844;DHT22;3967;48.702;9.326;2022-12-18T07:26:48;-8.10;81.10
7844;DHT22;3967;48.702;9.326;2022-12-18T07:29:14;-8.00;81.10
7844;DHT22;3967;48.702;9.326;2022-12-18T07:31:41;-8.00;80.90
7844;DHT22;3967;48.702;9.326;2022-12-18T07:34:12;-8.00;80.80
7844;DHT22;3967;48.702;9.326;2022-12-18T07:36:39;-8.00;81.00
7844;DHT22;3967;48.702;9.326;2022-12-18T07:39:06;-8.00;81.10
7844;DHT22;3967;48.702;9.326;2022-12-18T07:41:33;-7.90;81.20
7844;DHT22;3967;48.702;9.326;2022-12-18T07:44:00;-7.80;81.20
7844;DHT22;3967;48.702;9.326;2022-12-18T07:46:26;-7.80;81.00
7844;DHT22;3967;48.702;9.326;2022-12-18T07:48:53;-7.70;81.00
7844;DHT22;3967;48.702;9.326;2022-12-18T07:51:20;-7.90;80.80
7844;DHT22;3967;48.702;9.326;2022-12-18T07:53:47;-8.00;80.90
7844;DHT22;3967;48.702;9.326;2022-12-18T07:56:18;-8.00;81.50
7844;DHT22;3967;48.702;9.326;2022-12-18T07:58:58;-8.10;81.30
7844;DHT22;3967;48.702;9.326;2022-12-18T08:01:26;-8.10;81.40
7844;DHT22;3967;48.702;9.326;2022-12-18T08:03:53;-8.20;81.60
7844;DHT22;3967;48.702;9.326;2022-12-18T08:06:20;-8.10;81.90
7844;DHT22;3967;48.702;9.326;2022-12-18T08:08:54;-8.00;81.90
7844;DHT22;3967;48.702;9.326;2022-12-18T08:11:22;-7.90;81.80
7844;DHT22;3967;48.702;9.326;2022-12-18T08:13:52;-8.00;81.70
7844;DHT22;3967;48.702;9.326;2022-12-18T08:16:20;-8.20;82.00
7844;DHT22;3967;48.702;9.326;2022-12-18T08:18:52;-8.20;82.70
7844;DHT22;3967;48.702;9.326;2022-12-18T08:21:24;-8.00;82.80
7844;DHT22;3967;48.702;9.326;2022-12-18T08:23:52;-7.90;82.60
7844;DHT22;3967;48.702;9.326;2022-12-18T08:26:20;-7.80;83.20
7844;DHT22;3967;48.702;9.326;2022-12-18T08:28:47;-7.80;82.50
7844;DHT22;3967;48.702;9.326;2022-12-18T08:31:16;-7.70;82.50
7844;DHT22;3967;48.702;9.326;2022-12-18T08:33:42;-7.70;82.10
7844;DHT22;3967;48.702;9.326;2022-12-18T08:36:10;-7.70;81.90
7844;DHT22;3967;48.702;9.326;2022-12-18T08:38:37;-7.50;82.10
7844;DHT22;3967;48.702;9.326;2022-12-18T08:41:09;-7.60;81.60
7844;DHT22;3967;48.702;9.326;2022-12-18T08:43:36;-7.60;81.70
7844;DHT22;3967;48.702;9.326;2022-12-18T08:46:23;-7.40;82.70
7844;DHT22;3967;48.702;9.326;2022-12-18T08:48:51;-7.60;82.60
7844;DHT22;3967;48.702;9.326;2022-12-18T08:51:19;-7.50;82.30
7844;DHT22;3967;48.702;9.326;2022-12-18T08:53:46;-7.60;82.10
7844;DHT22;3967;48.702;9.326;2022-12-18T08:56:14;-7.50;82.00
7844;DHT22;3967;48.702;9.326;2022-12-18T08:58:41;-7.30;81.70
7844;DHT22;3967;48.702;9.326;2022-12-18T09:01:09;-7.30;82.50
7844;DHT22;3967;48.702;9.326;2022-12-18T09:03:37;-7.10;82.10
7844;DHT22;3967;48.702;9.326;2022-12-18T09:06:05;-7.00;82.40
7844;DHT22;3967;48.702;9.326;2022-12-18T09:08:33;-6.90;82.90
7844;DHT22;3967;48.702;9.326;2022-12-18T09:11:00;-6.70;83.30
7844;DHT22;3967;48.702;9.326;2022-12-18T09:13:27;-6.60;84.00
7844;DHT22;3967;48.702;9.326;2022-12-18T09:15:55;-6.50;84.50
7844;DHT22;3967;48.702;9.326;2022-12-18T09:18:23;-6.60;84.90
7844;DHT22;3967;48.702;9.326;2022-12-18T09:20:50;-6.60;85.40
7844;DHT22;3967;48.702;9.326;2022-12-18T09:23:19;-6.50;85.30
7844;DHT22;3967;48.702;9.326;2022-12-18T09:25:45;-6.40;85.30
7844;DHT22;3967;48.702;9.326;2022-12-18T09:28:18;-6.30;85.40
7844;DHT22;3967;48.702;9.326;2022-12-18T09:30:48;-6.30;85.60
7844;DHT22;3967;48.702;9.326;2022-12-18T09:33:16;-6.20;86.10
7844;DHT22;3967;48.702;9.326;2022-12-18T09:35:44;-6.20;86.40
7844;DHT22;3967;48.702;9.326;2022-12-18T09:38:14;-6.30;85.70
7844;DHT22;3967;48.702;9.326;2022-12-18T09:40:47;-6.20;84.70
7844;DHT22;3967;48.702;9.326;2022-12-18T09:43:28;-6.20;84.70
7844;DHT22;3967;48.702;9.326;2022-12-18T09:46:01;-6.00;85.40
7844;DHT22;3967;48.702;9.326;2022-12-18T09:48:32;-5.90;85.50
7844;DHT22;3967;48.702;9.326;2022-12-18T09:51:05;-5.90;85.10
7844;DHT22;3967;48.702;9.326;2022-12-18T09:53:37;-5.90;84.90
7844;DHT22;3967;48.702;9.326;2022-12-18T09:56:06;-5.90;84.70
7844;DHT22;3967;48.702;9.326;2022-12-18T09:58:46;-5.80;85.20
7844;DHT22;3967;48.702;9.326;2022-12-18T10:01:20;-5.70;85.40
7844;DHT22;3967;48.702;9.326;2022-12-18T10:03:48;-5.80;84.90
7844;DHT22;3967;48.702;9.326;2022-12-18T10:09:16;-5.90;85.10
7844;DHT22;3967;48.702;9.326;2022-12-18T10:12:13;-5.80;85.00
7844;DHT22;3967;48.702;9.326;2022-12-18T10:14:53;-5.60;86.00
7844;DHT22;3967;48.702;9.326;2022-12-18T10:20:49;-5.40;85.70
7844;DHT22;3967;48.702;9.326;2022-12-18T10:23:32;-5.00;85.80
7844;DHT22;3967;48.702;9.326;2022-12-18T10:26:07;-4.90;85.90
7844;DHT22;3967;48.702;9.326;2022-12-18T10:28:36;-4.80;86.20
7844;DHT22;3967;48.702;9.326;2022-12-18T10:31:24;-4.80;86.30
7844;DHT22;3967;48.702;9.326;2022-12-18T10:33:52;-4.80;86.70
7844;DHT22;3967;48.702;9.326;2022-12-18T10:36:23;-4.70;86.60
7844;DHT22;3967;48.702;9.326;2022-12-18T10:38:51;-4.50;87.00
7844;DHT22;3967;48.702;9.326;2022-12-18T10:43:47;-4.30;88.10
7844;DHT22;3967;48.702;9.326;2022-12-18T10:46:19;-4.30;88.50
7844;DHT22;3967;48.702;9.326;2022-12-18T10:51:40;-4.10;89.10
7844;DHT22;3967;48.702;9.326;2022-12-18T10:54:18;-4.00;89.10
7844;DHT22;3967;48.702;9.326;2022-12-18T10:56:46;-3.80;89.80
7844;DHT22;3967;48.702;9.326;2022-12-18T10:59:17;-3.80;90.00
7844;DHT22;3967;48.702;9.326;2022-12-18T11:04:19;-3.70;90.20
7844;DHT22;3967;48.702;9.326;2022-12-18T11:09:31;-3.60;90.50
7844;DHT22;3967;48.702;9.326;2022-12-18T11:12:22;-3.50;90.50
7844;DHT22;3967;48.702;9.326;2022-12-18T11:14:53;-3.50;90.30
7844;DHT22;3967;48.702;9.326;2022-12-18T11:19:58;-3.40;90.80
7844;DHT22;3967;48.702;9.326;2022-12-18T11:22:29;-3.50;90.70
7844;DHT22;3967;48.702;9.326;2022-12-18T11:25:02;-3.40;90.90
7844;DHT22;3967;48.702;9.326;2022-12-18T11:27:57;-3.40;90.70
7844;DHT22;3967;48.702;9.326;2022-12-18T11:30:30;-3.50;91.20
7844;DHT22;3967;48.702;9.326;2022-12-18T11:33:10;-3.40;91.90
7844;DHT22;3967;48.702;9.326;2022-12-18T11:35:55;-3.40;92.00
7844;DHT22;3967;48.702;9.326;2022-12-18T11:41:24;-3.20;92.60
7844;DHT22;3967;48.702;9.326;2022-12-18T11:44:26;-3.00;92.80
7844;DHT22;3967;48.702;9.326;2022-12-18T11:47:04;-3.00;92.70
7844;DHT22;3967;48.702;9.326;2022-12-18T11:49:36;-3.00;92.70
7844;DHT22;3967;48.702;9.326;2022-12-18T11:52:24;-2.90;92.90
7844;DHT22;3967;48.702;9.326;2022-12-18T11:54:58;-3.00;93.10
7844;DHT22;3967;48.702;9.326;2022-12-18T12:05:56;-2.90;93.20
7844;DHT22;3967;48.702;9.326;2022-12-18T12:19:20;-2.60;93.40
7844;DHT22;3967;48.702;9.326;2022-12-18T12:27:55;-2.40;93.90
7844;DHT22;3967;48.702;9.326;2022-12-18T12:30:42;-2.20;93.70
7844;DHT22;3967;48.702;9.326;2022-12-18T12:33:29;-2.00;93.90
7844;DHT22;3967;48.702;9.326;2022-12-18T12:36:09;-2.30;94.30
7844;DHT22;3967;48.702;9.326;2022-12-18T12:38:42;-2.20;94.30
7844;DHT22;3967;48.702;9.326;2022-12-18T12:41:21;-2.40;94.70
7844;DHT22;3967;48.702;9.326;2022-12-18T12:44:24;-2.30;95.50
7844;DHT22;3967;48.702;9.326;2022-12-18T12:46:57;-2.10;95.50
7844;DHT22;3967;48.702;9.326;2022-12-18T12:49:29;-2.10;95.20
7844;DHT22;3967;48.702;9.326;2022-12-18T12:52:15;-2.00;95.40
7844;DHT22;3967;48.702;9.326;2022-12-18T12:54:43;-1.80;95.30
7844;DHT22;3967;48.702;9.326;2022-12-18T13:00:09;-1.80;95.20
7844;DHT22;3967;48.702;9.326;2022-12-18T13:05:58;-1.60;94.90
7844;DHT22;3967;48.702;9.326;2022-12-18T13:08:58;-1.60;94.80
7844;DHT22;3967;48.702;9.326;2022-12-18T13:11:46;-1.50;94.90
7844;DHT22;3967;48.702;9.326;2022-12-18T13:14:33;-1.40;94.80
7844;DHT22;3967;48.702;9.326;2022-12-18T13:20:10;-1.30;94.40
7844;DHT22;3967;48.702;9.326;2022-12-18T13:22:48;-1.30;94.50
7844;DHT22;3967;48.702;9.326;2022-12-18T13:25:37;-1.30;94.50
7844;DHT22;3967;48.702;9.326;2022-12-18T13:28:13;-1.30;94.50
7844;DHT22;3967;48.702;9.326;2022-12-18T13:30:41;-1.20;94.50
7844;DHT22;3967;48.702;9.326;2022-12-18T13:38:44;-1.20;94.00
7844;DHT22;3967;48.702;9.326;2022-12-18T13:43:53;-1.10;94.10
7844;DHT22;3967;48.702;9.326;2022-12-18T13:48:57;-1.10;94.30
7844;DHT22;3967;48.702;9.326;2022-12-18T13:51:25;-1.10;94.90
7844;DHT22;3967;48.702;9.326;2022-12-18T13:54:22;-1.10;94.70
7844;DHT22;3967;48.702;9.326;2022-12-18T13:56:47;-1.00;94.70
7844;DHT22;3967;48.702;9.326;2022-12-18T13:59:34;-1.10;94.30
7844;DHT22;3967;48.702;9.326;2022-12-18T14:02:15;-1.10;94.50
7844;DHT22;3967;48.702;9.326;2022-12-18T14:04:45;-1.10;94.40
7844;DHT22;3967;48.702;9.326;2022-12-18T14:07:28;-1.00;94.00
7844;DHT22;3967;48.702;9.326;2022-12-18T14:10:03;-1.20;93.70
7844;DHT22;3967;48.702;9.326;2022-12-18T14:12:51;-1.20;93.80
7844;DHT22;3967;48.702;9.326;2022-12-18T14:15:47;-0.60;98.00
7844;DHT22;3967;48.702;9.326;2022-12-18T14:20:49;0.00;98.40
7844;DHT22;3967;48.702;9.326;2022-12-18T14:25:57;-0.80;93.60
7844;DHT22;3967;48.702;9.326;2022-12-18T14:28:30;-0.90;93.40
7844;DHT22;3967;48.702;9.326;2022-12-18T14:30:57;-1.00;93.40
7844;DHT22;3967;48.702;9.326;2022-12-18T14:33:26;-1.00;93.20
7844;DHT22;3967;48.702;9.326;2022-12-18T14:36:02;-1.10;93.30
7844;DHT22;3967;48.702;9.326;2022-12-18T14:38:33;-1.20;93.50
7844;DHT22;3967;48.702;9.326;2022-12-18T14:41:19;-1.20;93.60
7844;DHT22;3967;48.702;9.326;2022-12-18T14:43:51;-1.20;93.50
7844;DHT22;3967;48.702;9.326;2022-12-18T14:48:55;-1.30;93.80
7844;DHT22;3967;48.702;9.326;2022-12-18T14:51:27;-1.30;94.10
7844;DHT22;3967;48.702;9.326;2022-12-18T14:53:59;-1.40;94.00
7844;DHT22;3967;48.702;9.326;2022-12-18T14:56:33;-1.50;94.00
7844;DHT22;3967;48.702;9.326;2022-12-18T14:59:06;-1.50;94.30
7844;DHT22;3967;48.702;9.326;2022-12-18T15:02:04;-1.60;94.70
7844;DHT22;3967;48.702;9.326;2022-12-18T15:04:39;-1.60;94.90
7844;DHT22;3967;48.702;9.326;2022-12-18T15:07:22;-1.70;95.60
7844;DHT22;3967;48.702;9.326;2022-12-18T15:10:11;-1.70;95.70
7844;DHT22;3967;48.702;9.326;2022-12-18T15:25:58;-2.10;95.00
7844;DHT22;3967;48.702;9.326;2022-12-18T15:28:36;-2.10;95.00
7844;DHT22;3967;48.702;9.326;2022-12-18T15:36:20;-2.30;95.50
7844;DHT22;3967;48.702;9.326;2022-12-18T15:38:54;-2.20;95.60
7844;DHT22;3967;48.702;9.326;2022-12-18T15:41:32;-2.20;95.40
7844;DHT22;3967;48.702;9.326;2022-12-18T15:44:02;-2.30;95.50
7844;DHT22;3967;48.702;9.326;2022-12-18T15:46:29;-2.40;95.50
7844;DHT22;3967;48.702;9.326;2022-12-18T15:48:57;-2.30;95.80
7844;DHT22;3967;48.702;9.326;2022-12-18T15:51:34;-2.10;96.10
7844;DHT22;3967;48.702;9.326;2022-12-18T15:54:04;-2.20;95.60
7844;DHT22;3967;48.702;9.326;2022-12-18T15:56:31;-2.20;95.20
7844;DHT22;3967;48.702;9.326;2022-12-18T15:59:19;-2.30;95.10
7844;DHT22;3967;48.702;9.326;2022-12-18T16:01:48;-2.30;95.20
7844;DHT22;3967;48.702;9.326;2022-12-18T16:04:17;-2.40;95.50
7844;DHT22;3967;48.702;9.326;2022-12-18T16:06:47;-2.30;95.60
7844;DHT22;3967;48.702;9.326;2022-12-18T16:09:33;-2.20;96.30
7844;DHT22;3967;48.702;9.326;2022-12-18T16:12:00;-2.30;95.50
7844;DHT22;3967;48.702;9.326;2022-12-18T16:14:29;-2.30;95.40
7844;DHT22;3967;48.702;9.326;2022-12-18T16:17:02;-2.40;95.20
7844;DHT22;3967;48.702;9.326;2022-12-18T16:19:29;-2.40;95.20
7844;DHT22;3967;48.702;9.326;2022-12-18T16:21:57;-2.40;95.10
7844;DHT22;3967;48.702;9.326;2022-12-18T16:24:27;-2.60;95.30
7844;DHT22;3967;48.702;9.326;2022-12-18T16:26:55;-2.70;96.10
7844;DHT22;3967;48.702;9.326;2022-12-18T16:29:26;-2.70;96.80
7844;DHT22;3967;48.702;9.326;2022-12-18T16:31:58;-2.80;97.00
7844;DHT22;3967;48.702;9.326;2022-12-18T16:34:27;-2.80;97.50
7844;DHT22;3967;48.702;9.326;2022-12-18T16:37:00;-2.70;97.70
7844;DHT22;3967;48.702;9.326;2022-12-18T16:39:32;-2.60;97.70
7844;DHT22;3967;48.702;9.326;2022-12-18T16:42:05;-2.60;97.30
7844;DHT22;3967;48.702;9.326;2022-12-18T16:44:33;-2.70;97.60
7844;DHT22;3967;48.702;9.326;2022-12-18T16:47:01;-2.80;97.40
7844;DHT22;3967;48.702;9.326;2022-12-18T16:49:29;-2.80;97.70
7844;DHT22;3967;48.702;9.326;2022-12-18T16:51:56;-2.80;97.60
7844;DHT22;3967;48.702;9.326;2022-12-18T16:54:23;-2.80;97.70
7844;DHT22;3967;48.702;9.326;2022-12-18T16:56:50;-2.80;97.80
7844;DHT22;3967;48.702;9.326;2022-12-18T16:59:17;-2.80;98.10
7844;DHT22;3967;48.702;9.326;2022-12-18T17:01:45;-2.80;98.10
7844;DHT22;3967;48.702;9.326;2022-12-18T17:04:19;-2.70;98.10
7844;DHT22;3967;48.702;9.326;2022-12-18T17:06:46;-2.70;98.00
7844;DHT22;3967;48.702;9.326;2022-12-18T17:09:18;-2.80;97.90
7844;DHT22;3967;48.702;9.326;2022-12-18T17:11:52;-2.70;97.80
7844;DHT22;3967;48.702;9.326;2022-12-18T17:14:22;-2.70;97.80
7844;DHT22;3967;48.702;9.326;2022-12-18T17:16:49;-2.70;97.70
7844;DHT22;3967;48.702;9.326;2022-12-18T17:19:36;-2.70;97.90
7844;DHT22;3967;48.702;9.326;2022-12-18T17:22:04;-2.70;97.80
7844;DHT22;3967;48.702;9.326;2022-12-18T17:24:30;-2.60;97.80
7844;DHT22;3967;48.702;9.326;2022-12-18T17:27:01;-2.70;97.70
7844;DHT22;3967;48.702;9.326;2022-12-18T17:29:28;-2.80;97.80
7844;DHT22;3967;48.702;9.326;2022-12-18T17:31:55;-2.80;98.20
7844;DHT22;3967;48.702;9.326;2022-12-18T17:34:24;-2.90;98.20
7844;DHT22;3967;48.702;9.326;2022-12-18T17:36:50;-3.00;98.80
7844;DHT22;3967;48.702;9.326;2022-12-18T17:39:18;-3.10;99.10
7844;DHT22;3967;48.702;9.326;2022-12-18T17:41:46;-3.10;99.70
7844;DHT22;3967;48.702;9.326;2022-12-18T17:44:13;-3.00;99.70
7844;DHT22;3967;48.702;9.326;2022-12-18T17:46:40;-3.10;99.90
7844;DHT22;3967;48.702;9.326;2022-12-18T17:49:07;-3.20;99.90
7844;DHT22;3967;48.702;9.326;2022-12-18T17:51:35;-3.30;99.90
7844;DHT22;3967;48.702;9.326;2022-12-18T17:54:01;-3.40;99.90
7844;DHT22;3967;48.702;9.326;2022-12-18T17:56:28;-3.40;99.90
7844;DHT22;3967;48.702;9.326;2022-12-18T17:58:56;-3.20;99.90
7844;DHT22;3967;48.702;9.326;2022-12-18T18:01:24;-3.20;99.90
7844;DHT22;3967;48.702;9.326;2022-12-18T18:03:52;-3.20;99.90
7844;DHT22;3967;48.702;9.326;2022-12-18T18:06:22;-3.40;99.90
7844;DHT22;3967;48.702;9.326;2022-12-18T18:08:49;-3.30;99.90
7844;DHT22;3967;48.702;9.326;2022-12-18T18:11:17;-3.20;99.90
7844;DHT22;3967;48.702;9.326;2022-12-18T18:14:19;-3.10;99.90
7844;DHT22;3967;48.702;9.326;2022-12-18T18:16:49;-3.00;99.90
7844;DHT22;3967;48.702;9.326;2022-12-18T18:19:18;-3.10;99.90
7844;DHT22;3967;48.702;9.326;2022-12-18T18:21:47;-3.00;99.90
7844;DHT22;3967;48.702;9.326;2022-12-18T18:24:17;-3.00;99.90
7844;DHT22;3967;48.702;9.326;2022-12-18T18:26:45;-3.10;99.90
7844;DHT22;3967;48.702;9.326;2022-12-18T18:29:17;-3.20;99.90
7844;DHT22;3967;48.702;9.326;2022-12-18T18:31:44;-3.10;99.90